Cleveland, Ohio
Traffic Map
Current Weather Conditions
Cleveland, Ohio
Overcast
Overcast
60°
Feels Like: 60°
Wind Chill: 60° Ceiling: 1500
Heat Index: 60° Visibility: 10mi
Dew Point: 55° Wind: 10mph
Humidity: 83% Direction: 340° (NNW)
Pressure: 29.93in Gusts: 0mph
Raw Report DataKBKL 301805Z 34009KT 10SM OVC015 16/13 A2993 RMK AO2 T01560128
Traffic Incident Summary
Active as of:
Severity:
Category:
InformationThere was an issue retrieving the traffic information for this location. Please try a different location or try again shortly.
Advertisements
Track Severe Weather on mobile